Time;durP1;ratioP1;P1;durP2;ratioP2;P2;SDS_P1;SDS_P2;PMS_P1;PMS_P2;Temp;Humidity;BMP_temperature;BMP_pressure;BME280_temperature;BME280_humidity;BME280_pressure;Samples;Min_cycle;Max_cycle;Signal;HPM_P1;HPM_P2
2022/01/27 00:05:28;;;;;;;42.47;27.52;;;5.70;99.90;;;;;;5032899;28;20052;-89
2022/01/27 00:08:10;;;;;;;39.95;28.40;;;5.70;99.90;;;;;;5021667;28;20053;-90
2022/01/27 00:13:13;;;;;;;41.53;28.20;;;5.70;99.90;;;;;;5015438;28;20045;-88
2022/01/27 00:15:40;;;;;;;40.45;27.50;;;5.70;99.90;;;;;;4993178;28;20049;-91
2022/01/27 00:18:15;;;;;;;42.25;25.88;;;5.70;99.90;;;;;;5023160;28;20045;-92
2022/01/27 00:20:41;;;;;;;42.90;26.70;;;5.70;99.90;;;;;;5007207;28;20060;-93
2022/01/27 00:23:07;;;;;;;41.00;27.25;;;5.70;99.90;;;;;;5006974;28;20128;-90
2022/01/27 00:25:33;;;;;;;38.70;27.67;;;5.70;99.90;;;;;;4987202;28;20243;-89
2022/01/27 00:27:59;;;;;;;42.25;28.10;;;5.70;99.90;;;;;;5006989;28;20120;-89
2022/01/27 00:30:25;;;;;;;40.03;26.02;;;5.70;99.90;;;;;;5003489;28;20042;-91
2022/01/27 00:32:51;;;;;;;38.90;27.35;;;5.70;99.90;;;;;;4981241;28;20041;-91
2022/01/27 00:35:16;;;;;;;39.97;26.02;;;5.70;99.90;;;;;;5006572;28;20042;-89
2022/01/27 00:37:42;;;;;;;38.88;27.67;;;5.70;99.90;;;;;;5020230;28;20037;-91
2022/01/27 00:40:11;;;;;;;42.47;28.33;;;5.70;99.90;;;;;;5004846;28;20076;-92
2022/01/27 00:42:38;;;;;;;40.67;28.23;;;5.70;99.90;;;;;;4989077;28;20037;-90
2022/01/27 00:45:04;;;;;;;38.13;27.15;;;5.70;99.90;;;;;;5009762;28;20455;-88
2022/01/27 00:47:30;;;;;;;40.67;26.60;;;5.80;99.90;;;;;;5003459;28;20120;-91
2022/01/27 00:49:56;;;;;;;38.08;27.17;;;5.70;99.90;;;;;;5005987;28;20375;-89
2022/01/27 00:52:29;;;;;;;40.90;28.95;;;5.80;99.90;;;;;;5004930;28;20052;-90
2022/01/27 00:54:55;;;;;;;39.22;27.35;;;5.70;99.90;;;;;;5004067;28;20057;-93
2022/01/27 00:57:37;;;;;;;39.83;25.83;;;5.70;99.90;;;;;;5023772;28;20030;-89
2022/01/27 01:00:06;;;;;;;37.78;26.92;;;5.70;99.90;;;;;;5022208;28;20482;-91
2022/01/27 01:02:51;;;;;;;36.90;26.10;;;5.70;99.90;;;;;;5027676;28;20088;-90
2022/01/27 01:09:16;;;;;;;37.90;25.13;;;5.80;99.90;;;;;;5008712;28;20547;-88
2022/01/27 01:11:25;;;;;;;;;;;5.80;99.90;;;;;;4999637;28;20053;-89
2022/01/27 01:30:08;;;;;;;37.90;25.50;;;5.90;99.90;;;;;;5007535;28;20556;-91
2022/01/27 01:32:46;;;;;;;33.80;23.98;;;5.90;99.90;;;;;;5010623;28;20088;-89
2022/01/27 01:35:12;;;;;;;40.95;24.27;;;6.00;99.90;;;;;;5032607;28;20436;-94
2022/01/27 01:37:40;;;;;;;31.50;23.70;;;5.90;99.90;;;;;;5000160;28;20048;-91
2022/01/27 01:40:15;;;;;;;36.50;25.48;;;6.00;99.90;;;;;;5008265;28;20168;-91
2022/01/27 01:42:41;;;;;;;33.40;24.63;;;6.00;99.90;;;;;;5012282;28;20045;-90
2022/01/27 01:45:11;;;;;;;34.60;24.67;;;6.00;99.90;;;;;;5027895;28;20128;-88
2022/01/27 01:47:37;;;;;;;35.25;24.00;;;6.00;99.90;;;;;;5009292;28;20133;-94
2022/01/27 01:50:05;;;;;;;36.22;23.35;;;5.90;99.90;;;;;;5006895;28;20484;-89
2022/01/27 01:52:31;;;;;;;36.97;25.38;;;5.90;99.90;;;;;;5024044;28;20049;-91
2022/01/27 01:54:57;;;;;;;37.00;25.17;;;5.90;99.90;;;;;;5009374;28;20084;-91
2022/01/27 01:57:23;;;;;;;35.45;24.17;;;5.90;99.90;;;;;;5029335;28;20077;-89
2022/01/27 01:59:49;;;;;;;33.53;24.02;;;5.90;99.90;;;;;;5013347;28;20064;-90
2022/01/27 02:02:14;;;;;;;37.95;25.33;;;5.90;99.90;;;;;;4990750;28;20049;-91
2022/01/27 02:04:41;;;;;;;35.25;24.45;;;5.90;99.90;;;;;;4992453;28;20762;-93
2022/01/27 02:07:18;;;;;;;33.80;22.60;;;5.90;99.90;;;;;;4996251;28;20030;-92
2022/01/27 02:18:01;;;;;;;34.42;24.77;;;5.90;99.90;;;;;;5008712;28;20143;-92
2022/01/27 02:20:32;;;;;;;38.60;25.30;;;5.90;99.90;;;;;;5007364;28;20053;-90
2022/01/27 02:22:58;;;;;;;36.42;24.75;;;6.00;99.90;;;;;;4990450;28;20046;-91
2022/01/27 02:25:24;;;;;;;37.60;25.95;;;5.90;99.90;;;;;;5007604;28;20041;-91
2022/01/27 02:27:57;;;;;;;36.30;25.33;;;5.90;99.90;;;;;;5012236;28;20048;-89
2022/01/27 02:30:23;;;;;;;36.80;24.92;;;5.90;99.90;;;;;;5006891;28;20088;-91
2022/01/27 02:32:53;;;;;;;35.67;24.10;;;5.90;99.90;;;;;;4995143;28;20115;-90
2022/01/27 02:35:25;;;;;;;38.35;26.48;;;5.90;99.90;;;;;;4995524;28;20049;-93
2022/01/27 02:37:52;;;;;;;35.67;26.52;;;5.90;99.90;;;;;;5012390;28;20328;-89
2022/01/27 02:40:26;;;;;;;39.55;25.05;;;5.90;99.90;;;;;;5008323;28;20136;-93
2022/01/27 02:42:53;;;;;;;37.00;26.13;;;5.90;99.90;;;;;;4987637;28;20444;-90
2022/01/27 02:45:48;;;;;;;35.38;26.33;;;5.90;99.90;;;;;;4990267;28;20170;-91
2022/01/27 02:48:14;;;;;;;37.20;27.02;;;5.90;99.90;;;;;;4996217;28;20065;-91
2022/01/27 02:50:40;;;;;;;39.10;27.27;;;5.80;99.90;;;;;;5019661;28;20048;-91
2022/01/27 02:53:09;;;;;;;42.00;25.10;;;5.80;99.90;;;;;;5007052;28;20033;-89
2022/01/27 02:55:35;;;;;;;36.97;26.55;;;5.80;99.90;;;;;;5023959;28;20402;-92
2022/01/27 02:58:02;;;;;;;38.95;25.48;;;5.80;99.90;;;;;;4995501;28;20046;-87
2022/01/27 03:00:27;;;;;;;40.22;25.83;;;5.80;99.90;;;;;;5005610;28;20058;-91
2022/01/27 03:02:53;;;;;;;39.20;25.95;;;5.80;99.90;;;;;;5007519;28;20383;-90
2022/01/27 03:05:18;;;;;;;39.50;27.42;;;5.80;99.90;;;;;;5008341;28;20124;-91
2022/01/27 03:07:48;;;;;;;36.53;25.52;;;5.90;99.90;;;;;;4995407;28;20069;-91
2022/01/27 03:10:15;;;;;;;38.53;25.17;;;5.80;99.90;;;;;;5007605;28;20390;-93
2022/01/27 03:12:41;;;;;;;40.03;25.75;;;5.80;99.90;;;;;;4998879;28;20064;-90
2022/01/27 03:15:09;;;;;;;39.38;27.33;;;5.90;99.90;;;;;;4997437;28;20037;-92
2022/01/27 03:17:34;;;;;;;42.55;27.58;;;5.90;99.90;;;;;;5016668;28;20046;-90
2022/01/27 03:20:00;;;;;;;37.28;26.73;;;5.90;99.90;;;;;;5008537;28;20156;-89
2022/01/27 03:22:25;;;;;;;38.38;27.25;;;5.90;99.90;;;;;;5014311;28;20115;-90
2022/01/27 03:24:51;;;;;;;36.22;24.75;;;5.80;99.90;;;;;;5007870;28;20059;-92
2022/01/27 03:27:21;;;;;;;40.83;27.77;;;5.90;99.90;;;;;;5008109;28;21214;-94
2022/01/27 03:29:46;;;;;;;39.33;28.30;;;5.90;99.90;;;;;;5005354;28;20040;-94
2022/01/27 03:32:12;;;;;;;38.55;27.08;;;5.90;99.90;;;;;;5005066;28;20513;-93
2022/01/27 03:34:38;;;;;;;38.35;25.40;;;5.90;99.90;;;;;;5005524;28;20052;-93
2022/01/27 03:37:04;;;;;;;41.42;26.35;;;5.90;99.90;;;;;;5008090;28;20386;-92
2022/01/27 03:39:29;;;;;;;42.75;27.17;;;5.90;99.90;;;;;;5010527;28;20451;-92
2022/01/27 03:41:56;;;;;;;38.38;24.80;;;5.90;99.90;;;;;;5007642;28;20351;-93
2022/01/27 03:44:22;;;;;;;38.95;25.67;;;5.90;99.90;;;;;;5024456;28;20052;-93
2022/01/27 03:46:49;;;;;;;39.28;28.05;;;5.80;99.90;;;;;;5030928;28;20482;-91
2022/01/27 03:49:15;;;;;;;42.40;28.73;;;5.80;99.90;;;;;;5011583;28;20049;-92
2022/01/27 03:51:41;;;;;;;45.95;28.65;;;5.80;99.90;;;;;;5030790;28;20065;-90
2022/01/27 03:54:07;;;;;;;44.03;27.52;;;5.80;99.90;;;;;;5047502;28;20049;-92
2022/01/27 03:56:33;;;;;;;42.08;28.60;;;5.80;99.90;;;;;;5011317;28;20448;-90
2022/01/27 03:58:58;;;;;;;41.65;28.67;;;5.80;99.90;;;;;;5007675;28;20493;-92
2022/01/27 04:01:24;;;;;;;40.55;27.70;;;5.80;99.90;;;;;;5007695;28;20033;-90
2022/01/27 04:03:53;;;;;;;39.38;27.85;;;5.80;99.90;;;;;;5004136;28;20121;-93
2022/01/27 04:06:22;;;;;;;39.65;26.63;;;5.80;99.90;;;;;;5007610;28;20060;-90
2022/01/27 04:08:48;;;;;;;40.63;25.50;;;5.80;99.90;;;;;;5024471;28;20045;-93
2022/01/27 04:11:14;;;;;;;40.88;26.95;;;5.80;99.90;;;;;;4990058;28;20051;-95
2022/01/27 04:13:39;;;;;;;41.75;26.73;;;5.80;99.90;;;;;;5022545;28;20050;-95
2022/01/27 04:16:05;;;;;;;40.03;27.58;;;5.80;99.90;;;;;;5006403;28;20037;-91
2022/01/27 04:18:31;;;;;;;43.00;24.75;;;5.80;99.90;;;;;;5007360;28;20115;-92
2022/01/27 04:20:57;;;;;;;41.42;29.58;;;5.80;99.90;;;;;;4990103;28;20398;-94
2022/01/27 04:23:22;;;;;;;39.83;28.05;;;5.80;99.90;;;;;;5027535;28;20073;-95
2022/01/27 04:25:49;;;;;;;41.53;24.85;;;5.80;99.90;;;;;;5003426;28;21582;-91
2022/01/27 04:28:20;;;;;;;39.03;26.40;;;5.80;99.90;;;;;;5004408;28;20046;-93
2022/01/27 04:30:47;;;;;;;38.95;25.90;;;5.80;99.90;;;;;;5006200;28;20045;-94
2022/01/27 04:33:12;;;;;;;42.58;25.45;;;5.80;99.90;;;;;;5005920;28;20049;-92
2022/01/27 04:35:44;;;;;;;40.58;27.83;;;5.80;99.90;;;;;;5023181;28;20033;-89
2022/01/27 04:41:02;;;;;;;40.28;27.85;;;5.90;99.90;;;;;;5023960;28;20042;-91
2022/01/27 04:43:37;;;;;;;39.25;24.45;;;5.90;99.90;;;;;;5006876;28;20059;-90
2022/01/27 04:46:29;;;;;;;39.58;26.92;;;5.90;99.90;;;;;;4993061;28;20041;-92
2022/01/27 04:48:59;;;;;;;40.33;27.02;;;5.90;99.90;;;;;;5009217;28;20064;-94
2022/01/27 04:51:25;;;;;;;40.55;26.90;;;5.90;99.90;;;;;;5013667;28;20045;-94
2022/01/27 04:56:21;;;;;;;39.45;27.85;;;6.00;99.90;;;;;;5005582;28;20050;-93
2022/01/27 04:58:50;;;;;;;38.67;24.65;;;6.00;99.90;;;;;;5003744;28;20057;-93
2022/01/27 05:01:18;;;;;;;36.92;25.42;;;6.00;99.90;;;;;;4986830;28;20041;-91
2022/01/27 05:03:56;;;;;;;40.88;27.02;;;6.00;99.90;;;;;;5003384;28;20440;-91
2022/01/27 05:06:22;;;;;;;40.85;26.33;;;6.00;99.90;;;;;;4992014;28;20124;-90
2022/01/27 05:08:48;;;;;;;39.33;26.30;;;6.00;99.90;;;;;;5009655;28;20123;-93
2022/01/27 05:11:21;;;;;;;38.13;25.23;;;6.00;99.90;;;;;;5008131;28;20401;-91
2022/01/27 05:13:54;;;;;;;40.10;27.58;;;6.00;99.90;;;;;;5008075;28;20064;-91
2022/01/27 05:16:19;;;;;;;43.20;24.58;;;6.00;99.90;;;;;;5010958;28;20061;-94
2022/01/27 05:18:45;;;;;;;40.72;26.75;;;6.00;99.90;;;;;;5009378;28;20049;-92
2022/01/27 05:21:10;;;;;;;40.20;26.45;;;6.00;99.90;;;;;;5008775;28;20060;-91
2022/01/27 05:23:36;;;;;;;37.33;25.13;;;6.10;99.90;;;;;;5006523;28;20115;-91
2022/01/27 05:26:02;;;;;;;38.05;24.13;;;6.00;99.90;;;;;;5009491;28;20052;-92
2022/01/27 05:28:27;;;;;;;38.47;26.10;;;6.00;99.90;;;;;;5007791;28;20397;-92
2022/01/27 05:30:53;;;;;;;37.97;25.75;;;6.00;99.90;;;;;;5009410;28;20041;-93
2022/01/27 05:33:18;;;;;;;40.78;26.27;;;6.00;99.90;;;;;;5012097;28;20486;-92
2022/01/27 05:35:45;;;;;;;36.50;25.23;;;6.00;99.90;;;;;;5025096;28;20037;-91
2022/01/27 05:38:16;;;;;;;42.10;25.60;;;6.00;99.90;;;;;;5032073;28;20056;-90
2022/01/27 05:40:42;;;;;;;42.63;24.50;;;6.10;99.90;;;;;;5009269;28;20056;-90
2022/01/27 05:43:09;;;;;;;38.95;23.55;;;6.00;99.90;;;;;;5012079;28;20045;-88
2022/01/27 05:45:35;;;;;;;39.67;25.38;;;6.10;99.90;;;;;;5009978;28;20045;-89
2022/01/27 05:48:00;;;;;;;40.72;26.50;;;6.10;99.90;;;;;;5011608;28;20565;-91
2022/01/27 05:50:26;;;;;;;41.22;25.73;;;6.10;99.90;;;;;;5001293;28;20045;-90
2022/01/27 05:52:52;;;;;;;41.05;25.55;;;6.10;99.90;;;;;;4993019;28;20050;-91
2022/01/27 05:55:17;;;;;;;42.05;26.25;;;6.10;99.90;;;;;;5015539;28;20052;-91
2022/01/27 05:57:43;;;;;;;37.83;25.98;;;6.10;99.90;;;;;;4996485;28;20049;-91
2022/01/27 06:00:10;;;;;;;41.75;26.63;;;6.10;99.90;;;;;;5013730;28;20069;-94
2022/01/27 06:02:36;;;;;;;43.28;26.73;;;6.10;99.90;;;;;;5008016;28;20050;-93
2022/01/27 06:05:02;;;;;;;38.47;26.15;;;6.00;99.90;;;;;;5015647;28;20452;-93
2022/01/27 06:07:29;;;;;;;42.05;27.10;;;6.10;99.90;;;;;;4992525;28;20390;-94
2022/01/27 06:09:55;;;;;;;43.10;28.20;;;6.10;99.90;;;;;;5030560;28;20128;-91
2022/01/27 06:12:21;;;;;;;43.03;26.83;;;6.10;99.90;;;;;;4994070;28;20121;-94
2022/01/27 06:14:46;;;;;;;42.70;27.02;;;6.00;99.90;;;;;;5007982;28;20145;-90
2022/01/27 06:17:12;;;;;;;42.20;27.25;;;6.00;99.90;;;;;;5009498;28;20045;-92
2022/01/27 06:19:37;;;;;;;46.08;27.90;;;6.00;99.90;;;;;;5008729;28;20183;-94
2022/01/27 06:22:11;;;;;;;48.72;27.83;;;6.00;99.90;;;;;;5009662;28;20457;-90
2022/01/27 06:24:44;;;;;;;51.13;29.13;;;6.00;99.90;;;;;;5011628;28;20050;-90
2022/01/27 06:27:10;;;;;;;49.05;28.60;;;6.00;99.90;;;;;;5028423;28;20037;-94
2022/01/27 06:29:36;;;;;;;49.15;29.85;;;6.00;99.90;;;;;;5013649;28;20037;-92
2022/01/27 06:32:03;;;;;;;48.22;27.17;;;6.00;99.90;;;;;;4990477;28;20038;-91
2022/01/27 06:34:29;;;;;;;49.60;30.08;;;5.90;99.90;;;;;;5017195;28;20456;-93
2022/01/27 06:36:55;;;;;;;48.38;28.10;;;5.90;99.90;;;;;;5008124;28;20045;-89
2022/01/27 06:39:20;;;;;;;49.10;27.55;;;6.00;99.90;;;;;;4993365;28;20049;-89
2022/01/27 06:41:47;;;;;;;50.13;27.73;;;5.90;99.90;;;;;;4989927;28;20045;-94
2022/01/27 06:44:13;;;;;;;46.55;29.65;;;5.90;99.90;;;;;;5009904;28;20128;-91
2022/01/27 06:46:38;;;;;;;50.30;30.02;;;5.90;99.90;;;;;;5012898;28;20462;-92
2022/01/27 06:49:04;;;;;;;53.95;31.00;;;5.90;99.90;;;;;;5012470;28;20045;-95
2022/01/27 06:51:31;;;;;;;52.55;29.92;;;5.90;99.90;;;;;;4991023;28;20049;-88
2022/01/27 06:53:58;;;;;;;48.10;29.83;;;5.90;99.90;;;;;;5001088;28;20046;-91
2022/01/27 06:56:26;;;;;;;48.72;30.45;;;5.90;99.90;;;;;;5032569;28;20072;-94
2022/01/27 06:58:53;;;;;;;47.15;29.83;;;5.80;99.90;;;;;;4996739;28;20069;-92
2022/01/27 07:01:19;;;;;;;48.55;29.55;;;5.90;99.90;;;;;;5014259;28;20072;-90
2022/01/27 07:03:45;;;;;;;48.35;26.27;;;5.90;99.90;;;;;;5014487;28;20397;-92
2022/01/27 07:06:12;;;;;;;48.33;28.98;;;5.90;99.90;;;;;;4995386;28;20038;-93
2022/01/27 07:08:38;;;;;;;46.50;28.10;;;5.90;99.90;;;;;;5003755;28;20053;-91
2022/01/27 07:11:04;;;;;;;47.17;27.88;;;5.90;99.90;;;;;;5010149;28;20037;-91
2022/01/27 07:13:30;;;;;;;42.58;27.08;;;5.90;99.90;;;;;;5009804;28;20049;-91
2022/01/27 07:15:57;;;;;;;43.63;27.52;;;5.90;99.90;;;;;;5027940;28;20041;-94
2022/01/27 07:18:22;;;;;;;43.00;24.38;;;6.00;99.90;;;;;;4991869;28;20084;-94
2022/01/27 07:20:48;;;;;;;41.80;25.23;;;6.00;99.90;;;;;;5030512;28;20441;-89
2022/01/27 07:23:14;;;;;;;44.42;26.67;;;6.00;99.90;;;;;;5028415;28;20041;-92
2022/01/27 07:25:40;;;;;;;41.63;23.67;;;6.00;99.90;;;;;;5012935;28;20037;-93
2022/01/27 07:28:05;;;;;;;41.20;25.58;;;6.00;99.90;;;;;;5013187;28;20033;-93
2022/01/27 07:30:31;;;;;;;42.42;24.92;;;6.10;99.90;;;;;;5013163;28;20045;-93
2022/01/27 07:32:56;;;;;;;39.17;23.88;;;6.10;99.90;;;;;;4980540;28;20042;-93
2022/01/27 07:35:22;;;;;;;40.10;24.92;;;6.10;99.90;;;;;;4983511;28;20041;-93
2022/01/27 07:37:48;;;;;;;36.33;24.77;;;6.10;99.90;;;;;;5014707;28;20044;-92
2022/01/27 07:40:14;;;;;;;40.33;24.02;;;6.20;99.90;;;;;;5017703;28;20095;-90
2022/01/27 07:42:40;;;;;;;37.60;21.98;;;6.20;99.90;;;;;;5014897;28;20101;-92
2022/01/27 07:45:07;;;;;;;36.53;23.67;;;6.20;99.90;;;;;;5016980;28;20536;-90
2022/01/27 07:47:33;;;;;;;39.92;23.27;;;6.20;99.90;;;;;;5017017;28;20045;-93
2022/01/27 07:49:59;;;;;;;35.50;23.60;;;6.30;99.90;;;;;;4997673;28;20500;-91
2022/01/27 07:52:25;;;;;;;35.90;22.70;;;6.30;99.90;;;;;;4992926;28;20387;-93
2022/01/27 07:54:50;;;;;;;38.42;22.70;;;6.40;99.90;;;;;;5012213;28;20076;-92
2022/01/27 07:57:16;;;;;;;39.75;23.40;;;6.40;99.90;;;;;;5010181;28;20041;-92
2022/01/27 07:59:42;;;;;;;37.78;23.73;;;6.40;99.90;;;;;;4996696;28;20037;-90
2022/01/27 08:02:07;;;;;;;37.88;22.42;;;6.40;99.90;;;;;;5008591;28;20056;-91
2022/01/27 08:04:33;;;;;;;38.13;23.33;;;6.50;99.90;;;;;;5012214;28;20202;-90
2022/01/27 08:07:00;;;;;;;38.03;22.85;;;6.60;99.90;;;;;;4993492;28;20034;-94
2022/01/27 08:09:26;;;;;;;38.50;22.63;;;6.50;99.90;;;;;;5011786;28;20049;-89
2022/01/27 08:11:51;;;;;;;38.42;22.75;;;6.60;99.90;;;;;;5009570;28;20375;-89
2022/01/27 08:14:17;;;;;;;38.58;23.95;;;6.60;99.90;;;;;;5013585;28;20046;-91
2022/01/27 08:16:42;;;;;;;41.45;23.67;;;6.60;99.90;;;;;;4988525;28;20034;-89
2022/01/27 08:19:08;;;;;;;40.45;24.52;;;6.70;99.90;;;;;;4994031;28;20053;-89
2022/01/27 08:21:34;;;;;;;37.42;22.05;;;6.80;99.90;;;;;;5006623;28;20095;-92
2022/01/27 08:24:00;;;;;;;38.83;22.63;;;6.80;99.90;;;;;;5010859;28;20057;-88
2022/01/27 08:26:39;;;;;;;43.33;24.05;;;6.90;99.90;;;;;;5028051;28;20056;-89
2022/01/27 08:29:12;;;;;;;35.33;21.70;;;6.90;99.90;;;;;;5012296;28;20478;-89
2022/01/27 08:34:36;;;;;;;42.50;23.15;;;7.00;99.90;;;;;;5014694;28;20054;-94
2022/01/27 08:37:28;;;;;;;40.25;21.85;;;7.10;99.90;;;;;;5011117;28;20049;-94
2022/01/27 08:39:54;;;;;;;38.22;22.17;;;7.10;99.90;;;;;;5008302;28;20048;-93
2022/01/27 08:42:19;;;;;;;40.40;21.45;;;7.20;99.90;;;;;;5001887;28;20042;-95
2022/01/27 08:44:45;;;;;;;40.42;22.00;;;7.20;99.90;;;;;;5016378;28;20037;-94
2022/01/27 08:47:12;;;;;;;38.25;20.80;;;7.20;99.90;;;;;;5008164;28;20042;-93
2022/01/27 08:49:37;;;;;;;36.45;20.52;;;7.30;99.90;;;;;;5011257;28;20049;-91
2022/01/27 08:52:03;;;;;;;39.90;20.48;;;7.30;99.90;;;;;;5001273;28;20056;-96
2022/01/27 08:54:29;;;;;;;36.33;20.20;;;7.30;99.90;;;;;;5022695;28;20037;-95
2022/01/27 08:56:55;;;;;;;33.55;18.58;;;7.40;99.90;;;;;;5007501;28;20080;-94
2022/01/27 08:59:21;;;;;;;31.70;18.48;;;7.40;99.90;;;;;;5011787;28;20041;-90
2022/01/27 09:01:46;;;;;;;32.78;18.35;;;7.50;99.90;;;;;;5000356;28;20030;-93
2022/01/27 09:04:13;;;;;;;33.55;18.15;;;7.50;99.90;;;;;;5015546;28;20045;-91
2022/01/27 09:06:39;;;;;;;28.95;17.40;;;7.60;99.90;;;;;;4997813;28;20390;-93
2022/01/27 09:09:05;;;;;;;33.67;17.90;;;7.60;99.90;;;;;;5029034;28;20041;-93
2022/01/27 09:11:31;;;;;;;32.63;16.88;;;7.70;99.90;;;;;;5006136;28;20053;-95
2022/01/27 09:13:59;;;;;;;31.35;17.20;;;7.70;99.90;;;;;;4997923;28;20033;-92
2022/01/27 09:16:27;;;;;;;31.30;16.50;;;7.80;99.90;;;;;;5000367;28;20050;-93
2022/01/27 09:18:53;;;;;;;29.17;15.75;;;7.80;99.90;;;;;;5003488;28;20060;-94
2022/01/27 09:21:24;;;;;;;34.30;16.45;;;7.90;99.90;;;;;;4998495;28;20045;-95
2022/01/27 09:23:50;;;;;;;28.33;14.88;;;7.90;99.90;;;;;;5017071;28;20195;-94
2022/01/27 09:26:41;;;;;;;26.92;13.73;;;7.90;99.90;;;;;;5023271;28;20041;-94
2022/01/27 09:29:07;;;;;;;25.88;12.80;;;8.00;99.90;;;;;;5031312;28;20117;-95
2022/01/27 09:31:34;;;;;;;25.55;12.45;;;8.00;99.90;;;;;;5019952;28;20183;-95
2022/01/27 09:34:00;;;;;;;24.33;12.55;;;8.10;99.90;;;;;;4991728;28;20486;-94
2022/01/27 09:36:25;;;;;;;23.85;12.18;;;8.10;99.90;;;;;;5018414;28;20077;-94
2022/01/27 09:38:51;;;;;;;26.90;12.43;;;8.20;99.90;;;;;;5006196;28;20066;-92
2022/01/27 09:41:20;;;;;;;22.98;11.20;;;8.20;99.90;;;;;;5034777;28;20052;-95
2022/01/27 09:43:48;;;;;;;20.30;10.55;;;8.30;99.90;;;;;;5021128;28;20060;-95
2022/01/27 09:46:17;;;;;;;21.27;10.65;;;8.30;99.90;;;;;;4999558;28;20060;-96
2022/01/27 09:48:45;;;;;;;22.17;10.63;;;8.40;99.90;;;;;;5020448;28;20049;-94
2022/01/27 09:51:25;;;;;;;22.73;10.07;;;8.40;99.90;;;;;;5024520;28;20055;-94
2022/01/27 09:53:54;;;;;;;19.00;9.10;;;8.60;99.90;;;;;;5042148;28;20052;-95
2022/01/27 09:56:21;;;;;;;20.85;9.02;;;8.60;99.90;;;;;;5035109;28;20041;-93
2022/01/27 09:58:46;;;;;;;21.73;9.32;;;8.60;99.90;;;;;;5031110;28;20053;-94
2022/01/27 10:01:12;;;;;;;18.80;8.80;;;8.70;99.90;;;;;;5036922;28;20034;-95
2022/01/27 10:04:01;;;;;;;22.20;8.93;;;8.70;99.90;;;;;;5007268;28;20160;-91
2022/01/27 10:06:32;;;;;;;19.48;7.85;;;8.80;99.90;;;;;;5017780;28;20054;-95
2022/01/27 10:09:11;;;;;;;17.90;8.32;;;8.70;99.90;;;;;;5000911;28;20495;-95
2022/01/27 10:11:37;;;;;;;19.25;8.52;;;8.80;99.90;;;;;;5019277;28;20060;-95
2022/01/27 10:14:21;;;;;;;19.40;8.02;;;8.80;99.90;;;;;;5022628;28;20038;-91
2022/01/27 10:16:49;;;;;;;19.85;8.52;;;8.80;99.90;;;;;;5019261;28;20042;-94
2022/01/27 10:19:15;;;;;;;19.45;8.00;;;8.90;99.90;;;;;;5017149;28;20037;-93
2022/01/27 10:21:41;;;;;;;19.45;8.13;;;8.80;99.90;;;;;;5024140;28;20068;-95
2022/01/27 10:24:24;;;;;;;18.67;8.63;;;8.80;99.90;;;;;;5018563;28;20041;-91
2022/01/27 10:27:16;;;;;;;18.80;7.88;;;8.90;99.90;;;;;;5003644;28;20099;-95
2022/01/27 10:32:42;;;;;;;20.73;7.80;;;8.90;99.90;;;;;;5013884;28;20079;-91
2022/01/27 10:35:09;;;;;;;24.75;7.60;;;8.90;99.90;;;;;;5021352;28;20402;-90
2022/01/27 10:38:06;;;;;;;18.65;7.60;;;9.00;99.90;;;;;;4997510;28;20045;-94
2022/01/27 10:40:38;;;;;;;15.15;7.25;;;9.00;99.90;;;;;;5002163;28;20056;-91
2022/01/27 10:43:12;;;;;;;19.38;7.60;;;9.00;99.90;;;;;;5020806;28;20080;-92
2022/01/27 10:46:00;;;;;;;18.08;7.20;;;9.00;99.90;;;;;;5001602;28;20073;-94
2022/01/27 10:48:30;;;;;;;21.40;7.05;;;9.00;99.90;;;;;;5013264;28;20524;-92
2022/01/27 10:51:06;;;;;;;18.75;7.53;;;9.00;99.90;;;;;;5024934;28;20080;-89
2022/01/27 10:53:59;;;;;;;16.48;7.20;;;9.00;99.90;;;;;;5024510;28;20042;-90
2022/01/27 10:56:31;;;;;;;16.35;6.40;;;9.00;99.90;;;;;;5001997;28;20056;-93
2022/01/27 10:58:58;;;;;;;16.98;6.70;;;9.10;99.90;;;;;;5016202;28;20034;-94
2022/01/27 11:01:46;;;;;;;16.77;6.68;;;9.10;99.90;;;;;;5019657;28;20112;-94
2022/01/27 11:04:13;;;;;;;15.73;6.32;;;9.10;99.90;;;;;;5038440;28;20413;-94
2022/01/27 11:07:02;;;;;;;17.17;7.05;;;9.10;99.90;;;;;;5020337;28;20045;-93
2022/01/27 11:09:35;;;;;;;13.98;6.05;;;9.10;99.90;;;;;;5029224;28;20054;-93
2022/01/27 11:12:06;;;;;;;17.33;6.47;;;9.10;99.90;;;;;;5003111;28;20065;-93
2022/01/27 11:14:33;;;;;;;;;;;9.10;99.90;;;;;;5020874;28;20041;-92
2022/01/27 11:17:01;;;;;;;17.40;7.45;;;9.10;99.90;;;;;;5017592;28;20047;-96
2022/01/27 11:22:12;;;;;;;13.10;5.93;;;9.10;99.90;;;;;;5014089;28;20417;-90
2022/01/27 11:27:31;;;;;;;14.80;5.75;;;9.20;99.90;;;;;;5019093;28;20053;-90
2022/01/27 11:30:03;;;;;;;15.85;5.93;;;9.20;99.90;;;;;;5007281;28;20092;-91
2022/01/27 11:32:41;;;;;;;13.63;5.72;;;9.30;99.90;;;;;;5048431;28;20073;-89
2022/01/27 11:35:24;;;;;;;14.80;5.35;;;9.30;99.90;;;;;;5022929;28;20033;-94
2022/01/27 11:37:58;;;;;;;16.67;5.93;;;9.40;99.90;;;;;;5025768;28;20533;-93
2022/01/27 11:40:42;;;;;;;16.33;5.22;;;9.40;99.90;;;;;;5015140;28;20057;-91
2022/01/27 11:43:16;;;;;;;15.65;4.45;;;9.40;99.90;;;;;;5013956;28;20084;-94
2022/01/27 11:45:46;;;;;;;17.85;5.30;;;9.50;99.90;;;;;;4996424;28;20056;-94
2022/01/27 11:48:26;;;;;;;15.18;4.88;;;9.50;99.90;;;;;;5002928;28;20045;-93
2022/01/27 11:51:13;;;;;;;16.20;5.07;;;9.60;99.90;;;;;;5024193;28;20049;-91
2022/01/27 11:53:43;;;;;;;13.88;4.35;;;9.60;99.90;;;;;;5015756;28;20198;-96
2022/01/27 11:56:35;;;;;;;14.52;4.45;;;9.60;99.90;;;;;;5034119;28;20045;-95
2022/01/27 11:59:04;;;;;;;17.25;4.45;;;9.60;99.90;;;;;;5037416;28;20116;-92
2022/01/27 12:01:31;;;;;;;16.17;5.13;;;9.50;99.90;;;;;;5021026;28;20057;-95
2022/01/27 12:04:04;;;;;;;13.70;4.32;;;9.50;99.90;;;;;;5017171;28;20201;-93
2022/01/27 12:06:36;;;;;;;15.35;5.03;;;9.60;99.90;;;;;;5030662;28;20092;-92
2022/01/27 12:09:20;;;;;;;15.57;4.50;;;9.60;99.90;;;;;;5038609;28;20041;-95
2022/01/27 12:11:56;;;;;;;14.15;4.07;;;9.60;99.90;;;;;;5015921;28;20079;-92
2022/01/27 12:14:36;;;;;;;14.75;4.10;;;9.60;99.90;;;;;;5015777;28;20053;-95
2022/01/27 12:17:12;;;;;;;14.05;4.68;;;9.60;99.90;;;;;;5015379;28;20533;-91
2022/01/27 12:19:56;;;;;;;16.33;4.18;;;9.60;99.90;;;;;;5032411;28;20061;-90
2022/01/27 12:22:49;;;;;;;14.80;4.00;;;9.60;99.90;;;;;;5035864;28;20045;-92
2022/01/27 12:25:16;;;;;;;15.77;4.28;;;9.70;99.90;;;;;;5034971;28;20049;-92
2022/01/27 12:27:52;;;;;;;13.52;3.78;;;9.70;99.90;;;;;;5020260;28;20064;-94
2022/01/27 12:30:18;;;;;;;16.50;4.10;;;9.80;99.90;;;;;;5018050;28;20132;-92
2022/01/27 12:32:45;;;;;;;16.55;4.90;;;9.80;99.90;;;;;;5018165;28;20046;-93
2022/01/27 12:35:14;;;;;;;13.70;3.97;;;9.80;99.90;;;;;;5016690;28;20107;-92
2022/01/27 12:37:46;;;;;;;10.98;3.85;;;9.80;99.90;;;;;;5000045;28;20045;-95
2022/01/27 12:40:29;;;;;;;15.63;3.90;;;9.80;99.90;;;;;;5034125;28;20053;-93
2022/01/27 12:43:01;;;;;;;14.95;4.32;;;9.80;99.90;;;;;;5035090;28;20045;-93
2022/01/27 12:45:30;;;;;;;15.23;3.75;;;9.80;99.90;;;;;;5019671;28;20053;-93
2022/01/27 12:47:57;;;;;;;15.60;4.30;;;9.80;99.90;;;;;;4998925;28;20206;-93
2022/01/27 12:50:24;;;;;;;17.95;4.32;;;9.80;99.90;;;;;;5017070;28;20041;-92
2022/01/27 12:52:53;;;;;;;15.40;4.32;;;9.80;99.90;;;;;;5018847;28;20041;-95
2022/01/27 12:55:29;;;;;;;15.98;4.10;;;9.80;99.90;;;;;;5003260;28;20401;-94
2022/01/27 12:57:58;;;;;;;13.65;3.67;;;9.80;99.90;;;;;;5017139;28;20041;-93
2022/01/27 13:00:25;;;;;;;16.65;4.13;;;9.80;99.90;;;;;;5017920;28;20045;-95
2022/01/27 13:02:50;;;;;;;15.32;4.30;;;9.80;99.90;;;;;;5033614;28;20045;-93
2022/01/27 13:05:16;;;;;;;17.10;3.90;;;9.80;99.90;;;;;;5035037;28;20596;-94
2022/01/27 13:07:46;;;;;;;12.93;3.53;;;9.80;99.90;;;;;;5016849;28;20049;-94
2022/01/27 13:10:16;;;;;;;14.35;4.20;;;9.80;99.90;;;;;;5018653;28;20533;-96
2022/01/27 13:12:48;;;;;;;16.10;4.40;;;9.80;99.90;;;;;;5017069;28;20490;-94
2022/01/27 13:15:18;;;;;;;17.58;3.67;;;9.80;99.90;;;;;;5015511;28;20049;-95
2022/01/27 13:23:27;;;;;;;16.17;4.05;;;9.80;99.90;;;;;;5008264;28;20447;-94
2022/01/27 13:25:58;;;;;;;18.05;4.47;;;9.80;99.90;;;;;;5019481;28;20049;-94
2022/01/27 13:28:31;;;;;;;14.95;3.80;;;9.80;99.90;;;;;;5028938;28;20045;-95
2022/01/27 13:31:06;;;;;;;14.45;3.20;;;9.80;99.90;;;;;;5008905;28;20045;-94
2022/01/27 13:33:43;;;;;;;14.73;3.65;;;9.80;99.90;;;;;;5019317;28;20064;-91
2022/01/27 13:36:19;;;;;;;14.80;3.33;;;9.80;99.90;;;;;;5019586;28;20076;-93
2022/01/27 13:39:10;;;;;;;17.20;3.65;;;9.80;99.90;;;;;;5000935;28;20064;-94
2022/01/27 13:41:42;;;;;;;13.60;3.35;;;9.80;99.90;;;;;;5014413;28;20048;-93
2022/01/27 13:44:12;;;;;;;15.93;3.50;;;9.80;99.90;;;;;;5015649;28;20441;-91
2022/01/27 13:46:49;;;;;;;13.98;3.35;;;9.80;99.90;;;;;;5029533;28;20042;-92
2022/01/27 13:49:31;;;;;;;14.07;3.13;;;9.80;99.90;;;;;;4991318;28;20053;-91